createdAt,value
2022-11-25T00:00:44.071Z,97174.66
2022-11-25T00:10:56.127Z,97181.28
2022-11-25T00:20:58.833Z,97181.66
2022-11-25T00:31:08.560Z,97178.16
2022-11-25T00:41:29.730Z,97181.53
2022-11-25T00:51:31.918Z,97191.50
2022-11-25T01:01:35.401Z,97193.53
2022-11-25T01:11:37.613Z,97204.63
2022-11-25T01:21:40.105Z,97189.97
2022-11-25T01:31:43.330Z,97192.78
2022-11-25T01:41:46.611Z,97204.03
2022-11-25T01:51:59.214Z,97204.03
2022-11-25T02:02:01.912Z,97201.81
2022-11-25T02:12:04.743Z,97200.44
2022-11-25T02:22:15.479Z,97208.22
2022-11-25T02:32:21.872Z,97212.44
2022-11-25T02:42:27.774Z,97205.91
2022-11-25T02:52:29.971Z,97207.13
2022-11-25T03:02:32.303Z,97202.09
2022-11-25T03:12:34.517Z,97205.56
2022-11-25T03:22:36.736Z,97208.47
2022-11-25T03:32:38.903Z,97225.75
2022-11-25T03:42:41.137Z,97234.72
2022-11-25T03:52:43.342Z,97235.03
2022-11-25T04:02:45.883Z,97240.59
2022-11-25T04:12:48.206Z,97231.59
2022-11-25T04:22:50.395Z,97241.34
2022-11-25T04:32:52.534Z,97235.84
2022-11-25T04:43:01.535Z,97244.41
2022-11-25T04:53:05.804Z,97256.50
2022-11-25T05:03:08.031Z,97255.69
2022-11-25T05:13:10.216Z,97267.44
2022-11-25T05:23:12.408Z,97286.72
2022-11-25T05:33:14.578Z,97284.63
2022-11-25T05:43:17.435Z,97295.13
2022-11-25T05:53:19.691Z,97297.00
2022-11-25T06:03:29.284Z,97292.66
2022-11-25T06:13:31.481Z,97302.94
2022-11-25T06:23:34.866Z,97310.63
2022-11-25T06:33:38.023Z,97306.22
2022-11-25T06:43:40.841Z,97317.91
2022-11-25T06:53:43.236Z,97329.63
2022-11-25T07:03:48.653Z,97321.78
2022-11-25T07:13:56.187Z,97337.00
2022-11-25T07:23:59.903Z,97336.09
2022-11-25T07:34:20.173Z,97343.72
2022-11-25T07:44:22.822Z,97358.25
2022-11-25T07:54:25.658Z,97359.19
2022-11-25T08:04:27.924Z,97366.47
2022-11-25T08:14:30.122Z,97366.06
2022-11-25T08:24:32.306Z,97366.84
2022-11-25T08:34:34.526Z,97360.47
2022-11-25T08:44:37.041Z,97363.00
2022-11-25T08:54:39.447Z,97359.16
2022-11-25T09:04:41.745Z,97372.84
2022-11-25T09:14:43.989Z,97376.66
2022-11-25T09:24:46.397Z,97376.63
2022-11-25T09:34:48.669Z,97370.03
2022-11-25T09:45:31.923Z,97369.44
2022-11-25T09:55:39.932Z,97361.78
2022-11-25T10:05:48.053Z,97359.59
2022-11-25T10:15:50.934Z,97364.84
2022-11-25T10:26:01.499Z,97365.50
2022-11-25T10:36:03.702Z,97361.91
2022-11-25T10:46:21.365Z,97352.41
2022-11-25T10:56:23.550Z,97350.72
2022-11-25T11:06:32.137Z,97357.28
2022-11-25T11:16:36.926Z,97348.06
2022-11-25T11:26:39.251Z,97341.44
2022-11-25T11:36:59.255Z,97338.72
2022-11-25T11:47:15.087Z,97336.03
2022-11-25T11:57:29.276Z,97350.25
2022-11-25T12:07:47.084Z,97350.38
2022-11-25T12:17:56.325Z,97347.88
2022-11-25T12:28:08.039Z,97333.69
2022-11-25T12:38:16.100Z,97341.38
2022-11-25T12:48:21.553Z,97344.44
2022-11-25T12:58:45.396Z,97355.38
2022-11-25T13:09:00.293Z,97349.75
2022-11-25T13:19:09.502Z,97363.28
2022-11-25T13:29:14.548Z,97366.13
2022-11-25T13:39:30.846Z,97375.59
2022-11-25T13:49:43.376Z,97382.19
2022-11-25T14:00:00.903Z,97381.38
2022-11-25T14:10:21.827Z,97381.63
2022-11-25T14:20:32.858Z,97387.53
2022-11-25T14:30:43.307Z,97398.03
2022-11-25T14:40:54.644Z,97396.94
2022-11-25T14:51:00.415Z,97393.84
2022-11-25T15:01:08.316Z,97407.03
2022-11-25T15:11:18.713Z,97410.44
2022-11-25T15:21:27.734Z,97414.72
2022-11-25T15:31:35.284Z,97425.25
2022-11-25T15:41:41.999Z,97431.59
2022-11-25T15:51:52.859Z,97442.81
2022-11-25T16:01:55.100Z,97454.19
2022-11-25T16:12:06.496Z,97453.84
2022-11-25T16:22:15.953Z,97464.16
2022-11-25T16:32:24.011Z,97487.47
2022-11-25T16:42:26.340Z,97488.22
2022-11-25T16:52:28.789Z,97475.97
2022-11-25T17:02:31.049Z,97469.81
2022-11-25T17:12:35.331Z,97466.97
2022-11-25T17:22:39.618Z,97480.44
2022-11-25T17:32:42.160Z,97489.91
2022-11-25T17:42:46.321Z,97491.88
2022-11-25T17:52:49.499Z,97489.28
2022-11-25T18:02:51.917Z,97499.88
2022-11-25T18:12:56.151Z,97507.13
2022-11-25T18:22:58.975Z,97507.63
2022-11-25T18:33:01.828Z,97520.34
2022-11-25T18:43:04.759Z,97542.97
2022-11-25T18:53:06.967Z,97555.34
2022-11-25T19:03:23.484Z,97567.16
2022-11-25T19:13:33.098Z,97564.63
2022-11-25T19:23:36.193Z,97567.19
2022-11-25T19:33:42.485Z,97576.06
2022-11-25T19:43:44.699Z,97575.88
2022-11-25T19:53:46.897Z,97596.63
2022-11-25T20:03:51.159Z,97603.38
2022-11-25T20:13:53.403Z,97618.13
2022-11-25T20:23:56.234Z,97640.59
2022-11-25T20:33:58.430Z,97643.06
2022-11-25T20:44:00.893Z,97653.41
2022-11-25T20:54:03.294Z,97657.19
2022-11-25T21:04:06.199Z,97665.84
2022-11-25T21:14:19.905Z,97675.47
2022-11-25T21:24:32.111Z,97683.75
2022-11-25T21:40:30.288Z,97685.16
2022-11-25T21:50:32.588Z,97691.72
2022-11-25T22:10:09.750Z,97703.66
2022-11-25T22:20:38.647Z,97706.94
2022-11-25T22:37:23.554Z,97731.44
2022-11-25T22:47:29.236Z,97749.97
2022-11-25T22:57:31.543Z,97749.72
2022-11-25T23:07:33.807Z,97752.81
2022-11-25T23:17:36.048Z,97756.88
2022-11-25T23:27:38.317Z,97765.13
2022-11-25T23:37:40.666Z,97769.03
2022-11-25T23:47:45.508Z,97782.25
2022-11-25T23:57:48.613Z,97775.06
